HKJK

Jomo Kenyatta International Airport

Nairobi, Kenya
METAR HKJK 231030Z 14006KT 9999 BKN028 22/15 Q1023
Observed Flight Rules
May-23 @ 10:30 UTC (48 minutes ago) Marginal Visual Flight Rules
Wind Visibility Clouds
140° at 6 knots 10,000+ meters
  • Broken at 2,800' AGL
Temperatures Readings
Current 22°C / 72°F
Dewpoint 15°C / 59°F
Humidity 65%
Altimeter 30.21" Hg
Pressure 1023 hPa
Elevation 1624
METAR HKJK 231030Z 14006KT 9999 BKN028 22/15 Q1023
Observed Flight Rules
May-23 @ 10:30 UTC
(48 minutes ago)
MVFR
Wind Visibility
140° at 6 knots 10,000+ meters
Clouds
  • Broken at 2,800' AGL
Temperature Dewpoint
22°C / 72°F 15°C / 59°F
Humidity Altimeter Pressure
65% 30.21" Hg 1023 hPa